Sweden, Maine
Current Conditions -  °F | °C
As of 7:54 PM on Monday 24 Nov 2014 (Local Time) from KIZG Reporting Station
Scattered Clouds Scattered Clouds  
Wind Chill: 60°   Ceiling: Unl
Heat Index: 60°   Visibility: 10mi
Dew Point: 55°   Wind: 6mph
Humidity: 83%   Direction: 240°WSW
Pressure: 29.53"   Gusts: 18mph
Location:  44.1001°N, 70.6448°W
Report Text: KIZG 250054Z AUTO 24005G16KT 10SM SCT035 16/13 A2953 RMK AO2 SLP001 T01560128
Loading
Personal Weather Stations






























Interactive Weather Map New forecast layout! Learn more

10-Day Weather Forecast

Advertisements
Track Severe Weather on mobile